Time;durP1;ratioP1;P1;durP2;ratioP2;P2;SDS_P1;SDS_P2;PMS_P1;PMS_P2;Temp;Humidity;BMP_temperature;BMP_pressure;BME280_temperature;BME280_humidity;BME280_pressure;Samples;Min_cycle;Max_cycle;Signal;HPM_P1;HPM_P2
2021/06/02 00:01:56;;;;;;;4.85;3.92;;;12.60;95.60;;;;;;5015769;28;20390;-80
2021/06/02 00:04:31;;;;;;;6.28;4.18;;;12.60;95.60;;;;;;5016741;28;20504;-80
2021/06/02 00:07:04;;;;;;;5.70;4.40;;;12.70;95.70;;;;;;4995941;28;20467;-79
2021/06/02 00:09:37;;;;;;;5.15;4.07;;;12.60;96.30;;;;;;4996069;28;20033;-83
2021/06/02 00:12:09;;;;;;;5.68;4.15;;;12.50;96.10;;;;;;4996707;28;20033;-82
2021/06/02 00:14:42;;;;;;;5.28;4.78;;;12.40;96.40;;;;;;4996090;28;20022;-87
2021/06/02 00:17:08;;;;;;;5.25;4.75;;;12.40;96.30;;;;;;4996406;28;20038;-75
2021/06/02 00:19:34;;;;;;;5.25;4.65;;;12.30;96.40;;;;;;5013713;28;20018;-85
2021/06/02 00:22:04;;;;;;;6.95;4.78;;;12.30;96.60;;;;;;4996517;28;20479;-80
2021/06/02 00:24:31;;;;;;;6.45;4.68;;;12.30;96.70;;;;;;4996218;28;20087;-85
2021/06/02 00:27:04;;;;;;;7.22;5.20;;;12.30;96.80;;;;;;5013484;28;20014;-85
2021/06/02 00:29:31;;;;;;;5.85;4.95;;;12.20;97.00;;;;;;5013498;28;20116;-80
2021/06/02 00:32:00;;;;;;;5.35;4.85;;;12.20;97.10;;;;;;5013612;28;20018;-88
2021/06/02 00:34:27;;;;;;;6.82;4.55;;;12.20;97.10;;;;;;5013380;28;20025;-79
2021/06/02 00:36:57;;;;;;;5.60;4.95;;;12.20;97.10;;;;;;5013874;28;20026;-80
2021/06/02 00:39:25;;;;;;;6.15;4.80;;;12.20;97.20;;;;;;4994987;28;20497;-82
2021/06/02 00:41:54;;;;;;;6.25;4.78;;;12.20;97.20;;;;;;4995823;28;20038;-86
2021/06/02 00:44:20;;;;;;;5.82;5.10;;;12.30;97.20;;;;;;5028720;28;20666;-83
2021/06/02 00:46:50;;;;;;;6.45;5.03;;;12.30;97.10;;;;;;4980112;28;20029;-84
2021/06/02 00:49:24;;;;;;;6.45;4.78;;;12.20;97.00;;;;;;5028880;28;20026;-77
2021/06/02 00:51:58;;;;;;;7.00;4.57;;;12.30;97.10;;;;;;4996134;28;20030;-87
2021/06/02 00:54:30;;;;;;;8.23;5.43;;;12.20;97.00;;;;;;5013482;28;20049;-82
2021/06/02 00:57:06;;;;;;;7.45;5.07;;;12.20;97.10;;;;;;4995877;28;20029;-82
2021/06/02 00:59:53;;;;;;;5.65;5.15;;;12.20;97.20;;;;;;5013451;28;20045;-81
2021/06/02 01:02:23;;;;;;;5.88;5.05;;;12.20;97.20;;;;;;4989065;28;20034;-81
2021/06/02 01:04:54;;;;;;;6.53;5.00;;;12.10;97.20;;;;;;5033244;28;20037;-82
2021/06/02 01:07:23;;;;;;;6.70;5.13;;;12.10;97.40;;;;;;5032151;28;20109;-83
2021/06/02 01:09:56;;;;;;;6.07;5.47;;;12.00;97.60;;;;;;5018213;28;20096;-78
2021/06/02 01:12:26;;;;;;;5.50;5.00;;;12.00;97.60;;;;;;5003290;28;20061;-78
2021/06/02 01:14:59;;;;;;;7.97;5.43;;;11.90;97.90;;;;;;5002750;28;20107;-89
2021/06/02 01:17:28;;;;;;;6.47;4.90;;;11.90;98.20;;;;;;4986149;28;20475;-79
2021/06/02 01:19:59;;;;;;;9.20;5.03;;;11.90;98.30;;;;;;5002624;28;20040;-78
2021/06/02 01:22:28;;;;;;;7.13;4.82;;;11.80;98.30;;;;;;5002676;28;20036;-88
2021/06/02 01:25:00;;;;;;;7.03;5.30;;;11.90;98.50;;;;;;5036674;28;20032;-82
2021/06/02 01:27:26;;;;;;;5.20;4.70;;;11.80;98.40;;;;;;5002961;28;20034;-79
2021/06/02 01:29:52;;;;;;;5.38;4.85;;;11.70;98.60;;;;;;5018333;28;20352;-84
2021/06/02 01:32:53;;;;;;;6.78;5.57;;;11.80;98.90;;;;;;5036561;28;20033;-80
2021/06/02 01:35:38;;;;;;;6.65;5.30;;;11.80;98.80;;;;;;5036527;28;20029;-83
2021/06/02 01:38:10;;;;;;;7.05;5.10;;;11.80;98.80;;;;;;5036235;28;20171;-83
2021/06/02 01:41:10;;;;;;;9.45;5.40;;;11.70;98.90;;;;;;5036331;28;20474;-84
2021/06/02 01:44:09;;;;;;;7.95;5.07;;;11.70;98.90;;;;;;5016743;28;20536;-78
2021/06/02 01:46:52;;;;;;;6.88;5.43;;;11.70;99.20;;;;;;5016264;28;20077;-83
2021/06/02 01:49:52;;;;;;;7.68;5.13;;;11.60;99.30;;;;;;5016215;28;20029;-85
2021/06/02 01:52:36;;;;;;;5.60;4.70;;;11.60;99.40;;;;;;5016054;28;20032;-84
2021/06/02 01:55:40;;;;;;;6.25;5.28;;;11.60;99.40;;;;;;5016046;28;20030;-77
2021/06/02 01:58:20;;;;;;;7.65;5.30;;;11.60;99.60;;;;;;4998054;28;20033;-80
2021/06/02 02:01:19;;;;;;;6.57;5.63;;;11.60;99.70;;;;;;5016133;28;20030;-78
2021/06/02 02:03:56;;;;;;;9.23;5.15;;;11.60;99.70;;;;;;5009238;28;20128;-80
2021/06/02 02:06:57;;;;;;;5.82;5.20;;;11.60;99.80;;;;;;5035536;28;20034;-86
2021/06/02 02:09:44;;;;;;;8.18;5.57;;;11.50;99.90;;;;;;5017479;28;20696;-78
2021/06/02 02:12:37;;;;;;;5.90;4.93;;;11.60;99.90;;;;;;5017652;28;20036;-78
2021/06/02 02:15:41;;;;;;;7.97;5.65;;;11.60;99.90;;;;;;5035713;28;20089;-83
2021/06/02 02:18:30;;;;;;;7.65;6.05;;;11.60;99.90;;;;;;5017298;28;20021;-83
2021/06/02 02:21:20;;;;;;;8.60;5.15;;;11.50;99.90;;;;;;5016481;28;20025;-79
2021/06/02 02:24:10;;;;;;;12.15;6.30;;;11.50;99.90;;;;;;5017524;28;20037;-77
2021/06/02 02:26:57;;;;;;;7.75;5.82;;;11.50;99.90;;;;;;5034780;28;20096;-79
2021/06/02 02:29:41;;;;;;;6.20;5.53;;;11.40;99.90;;;;;;5015801;28;20025;-78
2021/06/02 02:32:36;;;;;;;6.75;5.78;;;11.40;99.90;;;;;;5015661;28;20081;-79
2021/06/02 02:35:36;;;;;;;6.80;5.63;;;11.40;99.90;;;;;;5017444;28;20021;-85
2021/06/02 02:38:37;;;;;;;6.10;5.50;;;11.50;99.90;;;;;;5002249;28;20398;-77
2021/06/02 02:41:31;;;;;;;9.25;6.22;;;11.40;99.90;;;;;;5016702;28;20528;-79
2021/06/02 02:44:28;;;;;;;8.13;5.75;;;11.40;99.90;;;;;;5016318;28;20475;-74
2021/06/02 02:47:16;;;;;;;6.05;5.38;;;11.50;99.90;;;;;;5031388;28;20025;-83
2021/06/02 02:50:10;;;;;;;8.57;6.70;;;11.50;99.90;;;;;;5016478;28;20099;-76
2021/06/02 02:52:39;;;;;;;7.13;5.93;;;11.50;99.90;;;;;;5034172;28;20475;-76
2021/06/02 02:55:40;;;;;;;6.93;6.13;;;11.40;99.90;;;;;;5016636;28;20021;-87
2021/06/02 02:58:33;;;;;;;7.07;5.80;;;11.50;99.90;;;;;;4937435;29;20027;-81
2021/06/02 03:01:04;;;;;;;7.47;5.90;;;11.50;99.90;;;;;;5033214;28;20099;-80
2021/06/02 03:03:53;;;;;;;5.97;5.13;;;11.50;99.90;;;;;;5024855;28;20046;-78
2021/06/02 03:06:44;;;;;;;7.35;5.20;;;11.50;99.90;;;;;;4977020;28;20037;-83
2021/06/02 03:09:41;;;;;;;7.10;5.30;;;11.40;99.90;;;;;;5014756;28;20109;-85
2021/06/02 03:12:17;;;;;;;6.45;4.72;;;11.50;99.90;;;;;;5014600;28;20533;-80
2021/06/02 03:14:58;;;;;;;5.75;5.15;;;11.50;99.90;;;;;;4996860;28;20036;-78
2021/06/02 03:17:43;;;;;;;5.90;4.90;;;11.40;99.90;;;;;;5014421;28;20033;-80
2021/06/02 03:21:07;;;;;;;7.40;5.32;;;11.40;99.90;;;;;;5014839;28;20026;-79
2021/06/02 03:23:57;;;;;;;5.78;4.80;;;11.50;99.90;;;;;;4945199;28;20126;-83
2021/06/02 03:26:31;;;;;;;6.30;5.30;;;11.50;99.90;;;;;;4996968;28;20022;-83
2021/06/02 03:29:15;;;;;;;6.38;4.90;;;11.40;99.90;;;;;;5013855;28;20082;-86
2021/06/02 03:32:04;;;;;;;5.38;4.88;;;11.40;99.90;;;;;;4996531;28;20387;-81
2021/06/02 03:34:57;;;;;;;6.45;5.25;;;11.40;99.90;;;;;;5014467;28;20030;-79
2021/06/02 03:37:46;;;;;;;6.38;5.18;;;11.40;99.90;;;;;;5014465;28;20028;-83
2021/06/02 03:40:33;;;;;;;8.73;6.05;;;11.30;99.90;;;;;;4996306;28;20030;-86
2021/06/02 03:43:14;;;;;;;7.97;5.60;;;11.30;99.90;;;;;;5014744;28;20108;-91
2021/06/02 03:46:08;;;;;;;5.97;5.18;;;11.40;99.90;;;;;;5014215;28;20018;-85
2021/06/02 03:48:44;;;;;;;6.13;5.10;;;11.40;99.90;;;;;;5014123;28;20538;-83
2021/06/02 03:51:20;;;;;;;5.45;4.95;;;11.40;99.90;;;;;;5014229;28;20471;-86
2021/06/02 03:54:04;;;;;;;5.65;5.07;;;11.30;99.90;;;;;;5014641;28;20037;-82
2021/06/02 03:56:51;;;;;;;6.90;5.03;;;11.30;99.90;;;;;;5014307;28;20026;-88
2021/06/02 03:59:39;;;;;;;7.32;5.35;;;11.30;99.90;;;;;;4996439;28;20112;-88
2021/06/02 04:02:36;;;;;;;6.43;5.13;;;11.40;99.90;;;;;;5014007;28;20084;-84
2021/06/02 04:05:26;;;;;;;5.93;4.97;;;11.40;99.90;;;;;;5033335;28;20037;-84
2021/06/02 04:08:29;;;;;;;8.70;6.15;;;11.40;99.90;;;;;;5016064;28;20048;-78
2021/06/02 04:11:18;;;;;;;8.20;6.07;;;11.30;99.90;;;;;;5016069;28;20025;-75
2021/06/02 04:14:03;;;;;;;7.13;5.88;;;11.40;99.90;;;;;;5033133;28;20047;-74
2021/06/02 04:16:42;;;;;;;6.97;5.90;;;11.40;99.90;;;;;;5031966;28;20049;-73
2021/06/02 04:19:15;;;;;;;6.07;5.47;;;11.40;99.90;;;;;;5031701;28;20035;-77
2021/06/02 04:21:45;;;;;;;5.53;5.03;;;11.40;99.90;;;;;;5015811;28;20430;-84
2021/06/02 04:24:12;;;;;;;;;;;11.40;99.90;;;;;;5034172;28;20055;-79
2021/06/02 04:26:39;;;;;;;6.68;4.88;;;11.40;99.90;;;;;;5032986;28;19905;-86
2021/06/02 04:29:12;;;;;;;5.22;4.72;;;11.40;99.90;;;;;;5033671;28;20029;-86
2021/06/02 04:31:58;;;;;;;7.05;5.10;;;11.40;99.90;;;;;;5015788;28;20116;-79
2021/06/02 04:34:27;;;;;;;7.22;5.78;;;11.50;99.90;;;;;;5033129;28;20343;-82
2021/06/02 04:36:58;;;;;;;6.25;5.60;;;11.50;99.90;;;;;;5033811;28;20418;-86
2021/06/02 04:39:26;;;;;;;6.28;5.35;;;11.50;99.90;;;;;;5033402;28;20029;-83
2021/06/02 04:41:57;;;;;;;6.47;5.20;;;11.50;99.90;;;;;;5015651;28;20041;-87
2021/06/02 04:44:26;;;;;;;7.22;5.80;;;11.50;99.90;;;;;;5018077;28;20063;-79
2021/06/02 04:46:55;;;;;;;6.20;5.15;;;11.40;99.90;;;;;;5019702;28;20029;-83
2021/06/02 04:49:51;;;;;;;8.38;5.32;;;11.40;99.90;;;;;;5019392;28;20084;-82
2021/06/02 04:52:34;;;;;;;6.63;5.25;;;11.50;99.90;;;;;;5019589;28;20052;-80
2021/06/02 04:55:26;;;;;;;5.90;5.00;;;11.50;99.90;;;;;;5019196;28;20028;-84
2021/06/02 04:58:10;;;;;;;6.07;4.85;;;11.50;99.90;;;;;;5014405;28;20025;-81
2021/06/02 05:00:57;;;;;;;5.43;4.90;;;11.50;99.90;;;;;;5037224;28;20061;-83
2021/06/02 05:03:41;;;;;;;5.60;4.95;;;11.50;99.90;;;;;;5036798;28;20486;-85
2021/06/02 05:06:22;;;;;;;5.18;4.68;;;11.50;99.90;;;;;;5037070;28;20126;-85
2021/06/02 05:09:05;;;;;;;6.05;4.80;;;11.60;99.90;;;;;;5036871;28;20021;-83
2021/06/02 05:11:54;;;;;;;6.05;4.78;;;11.60;99.90;;;;;;5018956;28;20041;-83
2021/06/02 05:14:34;;;;;;;5.22;4.50;;;11.70;99.90;;;;;;5019049;28;20029;-86
2021/06/02 05:17:22;;;;;;;;;;;11.60;99.90;;;;;;5037556;28;20052;-80
2021/06/02 05:20:16;;;;;;;6.03;4.93;;;11.50;99.90;;;;;;5016920;28;19909;-79
2021/06/02 05:22:48;;;;;;;5.47;4.68;;;11.60;99.90;;;;;;5016533;28;20022;-82
2021/06/02 05:25:22;;;;;;;6.82;4.68;;;11.60;99.90;;;;;;5016811;28;20108;-80
2021/06/02 05:28:00;;;;;;;8.55;4.80;;;11.60;99.90;;;;;;5032691;28;20470;-87
2021/06/02 05:30:46;;;;;;;6.03;5.10;;;11.60;99.90;;;;;;5018819;28;20025;-87
2021/06/02 05:33:49;;;;;;;5.63;5.00;;;11.70;99.90;;;;;;5036489;28;20025;-84
2021/06/02 05:36:27;;;;;;;5.80;5.03;;;11.70;99.90;;;;;;5018573;28;20544;-83
2021/06/02 05:39:24;;;;;;;5.72;5.00;;;11.70;99.90;;;;;;5036341;28;20101;-78
2021/06/02 05:42:13;;;;;;;6.50;5.20;;;11.70;99.90;;;;;;5036430;28;20025;-81
2021/06/02 05:44:57;;;;;;;7.57;5.30;;;11.70;99.90;;;;;;5036111;28;20055;-79
2021/06/02 05:47:54;;;;;;;7.15;4.90;;;11.70;99.90;;;;;;5035524;28;20022;-83
2021/06/02 05:50:46;;;;;;;6.40;5.25;;;11.80;99.90;;;;;;5018339;28;20482;-81
2021/06/02 05:53:36;;;;;;;7.47;5.20;;;11.70;99.90;;;;;;5018423;28;20489;-75
2021/06/02 05:56:57;;;;;;;6.38;5.10;;;11.70;99.90;;;;;;5035769;28;20482;-77
2021/06/02 05:59:37;;;;;;;6.32;5.35;;;11.80;99.90;;;;;;5016566;28;20455;-88
2021/06/02 06:02:05;;;;;;;;;;;11.80;99.90;;;;;;5016377;28;20032;-77
2021/06/02 06:04:55;;;;;;;6.68;5.45;;;11.80;99.90;;;;;;5015574;28;19925;-85
2021/06/02 06:07:40;;;;;;;6.07;5.35;;;11.80;99.90;;;;;;5015792;28;20104;-81
2021/06/02 06:10:31;;;;;;;11.02;5.72;;;11.80;99.90;;;;;;5015969;28;20029;-80
2021/06/02 06:13:18;;;;;;;;;;;11.90;99.90;;;;;;5016570;28;20701;-86
2021/06/02 06:16:02;;;;;;;8.90;5.78;;;11.90;99.90;;;;;;4998038;28;19913;-80
2021/06/02 06:19:04;;;;;;;7.75;5.20;;;11.80;99.90;;;;;;5016026;28;20018;-88
2021/06/02 06:22:02;;;;;;;7.85;5.40;;;11.90;99.90;;;;;;4990735;28;20042;-82
2021/06/02 06:24:47;;;;;;;8.52;6.00;;;11.90;99.90;;;;;;4997966;28;20030;-84
2021/06/02 06:27:34;;;;;;;8.15;5.07;;;11.90;99.90;;;;;;5027834;28;20527;-89
2021/06/02 06:30:06;;;;;;;5.75;5.10;;;11.90;99.90;;;;;;5055349;28;20053;-83
2021/06/02 06:32:38;;;;;;;6.88;5.10;;;11.90;99.90;;;;;;5036906;28;20036;-78
2021/06/02 06:35:08;;;;;;;7.20;6.00;;;11.90;99.90;;;;;;5054931;28;20028;-83
2021/06/02 06:37:46;;;;;;;8.15;5.05;;;12.00;99.90;;;;;;5054393;28;20033;-80
2021/06/02 06:40:22;;;;;;;5.95;5.20;;;11.90;99.90;;;;;;5021361;28;20390;-78
2021/06/02 06:42:52;;;;;;;6.75;5.32;;;12.00;99.90;;;;;;5020695;28;20025;-78
2021/06/02 06:45:30;;;;;;;7.05;5.50;;;12.10;99.90;;;;;;5037056;28;20074;-87
2021/06/02 06:48:13;;;;;;;8.30;5.18;;;12.10;99.90;;;;;;5054509;28;20501;-78
2021/06/02 06:50:49;;;;;;;8.65;5.40;;;12.10;99.90;;;;;;5054769;28;20469;-79
2021/06/02 06:53:19;;;;;;;7.10;5.45;;;12.20;99.90;;;;;;5037178;28;20028;-83
2021/06/02 06:55:46;;;;;;;6.10;4.63;;;12.10;99.90;;;;;;5037105;28;20029;-75
2021/06/02 06:58:15;;;;;;;5.97;5.38;;;12.10;99.90;;;;;;5035534;28;20263;-82
2021/06/02 07:00:49;;;;;;;7.75;5.60;;;12.20;99.90;;;;;;5034178;28;20048;-82
2021/06/02 07:03:15;;;;;;;6.40;5.15;;;12.20;99.90;;;;;;5027162;28;20052;-81
2021/06/02 07:05:43;;;;;;;7.07;5.25;;;12.20;99.90;;;;;;5014732;28;20526;-76
2021/06/02 07:08:14;;;;;;;5.70;5.00;;;12.20;99.90;;;;;;4997148;28;20503;-86
2021/06/02 07:10:43;;;;;;;6.53;5.47;;;12.20;99.90;;;;;;5014884;28;20033;-80
2021/06/02 07:13:18;;;;;;;6.57;5.30;;;12.30;99.90;;;;;;5014664;28;20387;-86
2021/06/02 07:15:58;;;;;;;6.05;5.22;;;12.30;99.90;;;;;;4981910;28;20085;-78
2021/06/02 07:18:37;;;;;;;6.60;5.18;;;12.30;99.90;;;;;;4982025;28;20026;-83
2021/06/02 07:21:39;;;;;;;8.23;5.63;;;12.30;99.90;;;;;;4996779;28;20112;-78
2021/06/02 07:24:06;;;;;;;6.40;5.00;;;12.30;99.90;;;;;;4999901;28;20028;-81
2021/06/02 07:26:33;;;;;;;8.20;4.90;;;12.30;99.90;;;;;;5013825;28;20109;-89
2021/06/02 07:29:06;;;;;;;6.32;5.03;;;12.40;99.90;;;;;;4996981;28;20021;-76
2021/06/02 07:31:34;;;;;;;7.00;5.22;;;12.50;99.90;;;;;;5014402;28;20445;-86
2021/06/02 07:34:15;;;;;;;;;;;;;;;;;;;;;
2021/06/02 07:36:41;;;;;;;6.55;4.80;;;12.50;99.90;;;;;;5014565;28;20033;-74
2021/06/02 07:39:07;;;;;;;5.60;4.75;;;12.50;99.90;;;;;;5013975;28;20432;-79
2021/06/02 07:41:38;;;;;;;6.50;4.85;;;12.60;99.90;;;;;;4996559;28;20037;-75
2021/06/02 07:44:10;;;;;;;5.65;4.65;;;12.60;99.90;;;;;;4996872;28;20073;-77
2021/06/02 07:46:36;;;;;;;6.80;4.70;;;12.60;99.90;;;;;;4996416;28;20022;-82
2021/06/02 07:49:06;;;;;;;5.82;4.30;;;12.70;99.90;;;;;;5013784;28;20040;-75
2021/06/02 07:51:32;;;;;;;5.07;4.45;;;12.70;99.90;;;;;;4996367;28;20029;-77
2021/06/02 07:54:00;;;;;;;6.15;4.55;;;12.80;99.90;;;;;;4996970;28;20033;-87
2021/06/02 07:56:26;;;;;;;6.30;4.55;;;12.80;99.90;;;;;;4996226;28;20041;-78
2021/06/02 07:58:52;;;;;;;5.82;4.45;;;12.80;99.90;;;;;;5013947;28;20030;-78
2021/06/02 08:01:18;;;;;;;5.72;4.72;;;12.90;99.90;;;;;;4995472;28;20037;-77
2021/06/02 08:03:45;;;;;;;7.43;4.88;;;12.90;99.90;;;;;;4987665;28;20066;-77
2021/06/02 08:06:15;;;;;;;6.15;4.70;;;12.90;99.90;;;;;;5033454;28;20053;-76
2021/06/02 08:08:43;;;;;;;5.18;4.68;;;12.90;99.90;;;;;;5033469;28;20033;-88
2021/06/02 08:11:08;;;;;;;5.05;4.35;;;13.00;99.90;;;;;;5015717;28;20021;-77
2021/06/02 08:13:35;;;;;;;7.10;4.18;;;13.00;99.90;;;;;;5033203;28;20029;-83
2021/06/02 08:16:06;;;;;;;8.00;4.38;;;13.00;99.90;;;;;;5015654;28;20160;-76
2021/06/02 08:18:32;;;;;;;8.25;4.22;;;13.00;99.90;;;;;;5016933;28;20030;-80
2021/06/02 08:20:57;;;;;;;6.60;4.38;;;13.10;99.90;;;;;;5037229;28;20025;-82
2021/06/02 08:23:25;;;;;;;6.97;4.75;;;13.10;99.90;;;;;;5037296;28;20105;-80
2021/06/02 08:25:51;;;;;;;5.78;4.20;;;13.10;99.90;;;;;;5036526;28;20554;-75
2021/06/02 08:28:19;;;;;;;7.90;4.20;;;13.10;99.90;;;;;;5037348;28;20454;-79
2021/06/02 08:30:48;;;;;;;7.07;4.28;;;13.20;99.90;;;;;;5003379;28;20034;-75
2021/06/02 08:33:21;;;;;;;6.50;4.03;;;13.20;99.90;;;;;;5019528;28;20436;-84
2021/06/02 08:36:01;;;;;;;6.07;4.13;;;13.20;99.90;;;;;;5036893;28;20025;-76
2021/06/02 08:38:28;;;;;;;6.38;4.35;;;13.20;99.90;;;;;;5037069;28;20021;-78
2021/06/02 08:41:07;;;;;;;5.78;4.05;;;13.10;99.90;;;;;;5019117;28;20036;-75
2021/06/02 08:43:36;;;;;;;5.50;4.05;;;13.10;99.90;;;;;;5019017;28;20053;-82
2021/06/02 08:46:09;;;;;;;6.45;4.93;;;13.00;99.90;;;;;;5018827;28;20037;-79
2021/06/02 08:49:02;;;;;;;5.93;4.20;;;13.00;99.90;;;;;;5034659;28;20423;-86
2021/06/02 08:51:36;;;;;;;5.32;4.03;;;12.90;99.90;;;;;;5036996;28;20022;-77
2021/06/02 08:54:03;;;;;;;5.72;4.18;;;12.90;99.90;;;;;;5036839;28;20029;-84
2021/06/02 08:56:42;;;;;;;7.60;4.22;;;12.90;99.90;;;;;;5035636;28;20076;-83
2021/06/02 08:59:22;;;;;;;5.10;4.00;;;12.90;99.90;;;;;;5035885;28;20037;-87
2021/06/02 09:01:52;;;;;;;7.57;4.10;;;12.80;99.90;;;;;;5020291;28;20083;-74
2021/06/02 09:04:23;;;;;;;4.70;4.18;;;12.80;99.90;;;;;;5021010;28;20050;-75
2021/06/02 09:06:59;;;;;;;6.93;4.13;;;12.70;99.90;;;;;;4983424;28;20030;-81
2021/06/02 09:09:33;;;;;;;6.32;4.32;;;12.80;99.90;;;;;;5017638;28;20097;-77
2021/06/02 09:12:34;;;;;;;5.47;4.20;;;12.80;99.90;;;;;;5015166;28;20030;-76
2021/06/02 09:15:23;;;;;;;7.10;4.28;;;12.80;99.90;;;;;;5016625;28;20541;-76
2021/06/02 09:17:57;;;;;;;6.22;4.30;;;12.80;99.90;;;;;;4999782;28;20547;-76
2021/06/02 09:20:42;;;;;;;9.60;4.82;;;12.80;99.90;;;;;;5017062;28;20463;-78
2021/06/02 09:23:31;;;;;;;6.70;4.55;;;12.90;99.90;;;;;;5016691;28;20391;-82
2021/06/02 09:26:14;;;;;;;8.68;4.43;;;12.90;99.90;;;;;;4998121;28;20059;-78
2021/06/02 09:29:00;;;;;;;5.90;4.50;;;13.00;99.90;;;;;;5016637;28;20022;-81
2021/06/02 09:31:28;;;;;;;7.63;4.97;;;13.00;99.90;;;;;;4998932;28;20026;-77
2021/06/02 09:33:59;;;;;;;6.18;4.70;;;13.00;99.90;;;;;;4998940;28;20467;-82
2021/06/02 09:36:42;;;;;;;9.25;5.03;;;13.00;99.90;;;;;;4998608;28;20476;-77
2021/06/02 09:39:13;;;;;;;7.47;5.05;;;13.10;99.90;;;;;;4997997;28;20411;-86
2021/06/02 09:42:15;;;;;;;7.90;5.30;;;13.10;99.90;;;;;;4998595;28;20038;-89
2021/06/02 09:45:01;;;;;;;6.72;5.38;;;13.10;99.90;;;;;;4995623;28;20515;-78
2021/06/02 09:47:54;;;;;;;10.90;5.40;;;13.10;99.90;;;;;;5016038;28;20037;-75
2021/06/02 09:50:33;;;;;;;8.45;5.75;;;13.20;99.90;;;;;;4982769;28;20438;-75
2021/06/02 09:53:06;;;;;;;8.57;5.63;;;13.10;99.90;;;;;;5016417;28;20022;-77
2021/06/02 09:55:47;;;;;;;14.13;8.15;;;13.10;99.90;;;;;;4998340;28;20489;-85
2021/06/02 09:58:29;;;;;;;8.38;6.25;;;13.10;99.90;;;;;;4999836;28;20025;-78
2021/06/02 10:00:59;;;;;;;11.15;5.82;;;13.10;99.90;;;;;;4982176;28;20045;-83
2021/06/02 10:03:33;;;;;;;8.93;6.30;;;13.10;99.90;;;;;;5024484;28;20041;-81
2021/06/02 10:06:01;;;;;;;7.93;5.80;;;13.00;99.90;;;;;;5017947;28;20033;-86
2021/06/02 10:08:55;;;;;;;9.15;5.47;;;13.00;99.90;;;;;;5001492;28;20029;-84
2021/06/02 10:11:26;;;;;;;8.50;5.72;;;13.00;99.90;;;;;;5014784;28;20068;-84
2021/06/02 10:14:05;;;;;;;10.05;5.97;;;13.00;99.90;;;;;;5002266;28;20030;-78
2021/06/02 10:16:40;;;;;;;11.65;7.22;;;13.00;99.90;;;;;;4986746;28;20084;-84
2021/06/02 10:19:05;;;;;;;11.05;6.68;;;13.10;99.90;;;;;;5017539;28;20386;-77
2021/06/02 10:21:43;;;;;;;11.05;5.88;;;13.10;99.90;;;;;;5035119;28;20034;-80
2021/06/02 10:24:12;;;;;;;8.68;5.43;;;13.20;99.90;;;;;;5001682;28;20056;-80
2021/06/02 10:26:39;;;;;;;9.02;5.53;;;13.20;99.90;;;;;;5001527;28;20094;-89
2021/06/02 10:29:06;;;;;;;9.75;5.47;;;13.20;99.90;;;;;;5001904;28;20089;-87
2021/06/02 10:31:34;;;;;;;8.25;5.38;;;13.20;99.90;;;;;;5001034;28;20131;-83
2021/06/02 10:34:00;;;;;;;6.97;5.88;;;13.30;99.90;;;;;;5017663;28;20180;-84
2021/06/02 10:36:27;;;;;;;8.38;5.88;;;13.20;99.90;;;;;;5001098;28;20157;-85
2021/06/02 10:38:57;;;;;;;9.52;5.88;;;13.30;99.90;;;;;;5035332;28;20104;-90
2021/06/02 10:41:35;;;;;;;9.63;5.60;;;13.30;99.90;;;;;;5032802;28;20045;-86
2021/06/02 10:44:08;;;;;;;11.30;6.60;;;13.30;99.90;;;;;;5016729;28;20026;-83
2021/06/02 10:46:37;;;;;;;8.52;6.72;;;13.40;99.90;;;;;;5016806;28;20028;-78
2021/06/02 10:49:04;;;;;;;10.00;6.30;;;13.40;99.90;;;;;;5016651;28;20540;-83
2021/06/02 10:51:36;;;;;;;11.82;7.55;;;13.50;99.90;;;;;;5000639;28;20064;-82
2021/06/02 10:54:19;;;;;;;10.43;6.82;;;13.50;99.90;;;;;;5034202;28;20025;-75
2021/06/02 10:56:57;;;;;;;6.78;5.70;;;13.60;99.90;;;;;;5022307;28;20112;-76
2021/06/02 10:59:44;;;;;;;6.53;5.78;;;13.60;99.90;;;;;;5014273;28;20046;-87
2021/06/02 11:02:14;;;;;;;8.57;5.45;;;13.60;99.90;;;;;;5014442;28;20042;-85
2021/06/02 11:05:04;;;;;;;9.40;5.18;;;13.60;99.90;;;;;;4996788;28;20046;-81
2021/06/02 11:07:33;;;;;;;8.90;6.65;;;13.60;99.90;;;;;;5014622;28;20026;-78
